Погода Кокална 2 недели

Пиауи, Бразилия

20 июля-02 августа
  • 20июля
    Сегодня
    +21°
    +34°
    Небольшая облачность
    ВремяПогодаТемператураВлажностьДавлениеВетер, м/сВероятность осадков
    00:00Ясно и безоблачно+24°C77 %748 мм0.9 м/с5 %
    03:00Ясно и безоблачно+22°C91 %748 мм0.7 м/с5 %
    06:00Ясно и безоблачно+22°C81 %748 мм1.8 м/с5 %
    09:00Ясно и безоблачно+29°C54 %749 мм3.1 м/с5 %
    12:00Ясно и безоблачно+33°C37 %748 мм4.2 м/с5 %
    15:00Небольшая облачность+32°C33 %746 мм4.7 м/с5 %
    18:00Практически безоблачно+29°C47 %746 мм2.1 м/с5 %
    21:00Ясно и безоблачно+27°C45 %748 мм4.7 м/с5 %
  • 21июля
    Воскресенье
    +21°
    +34°
    Облачно с прояснениями
    ВремяПогодаТемператураВлажностьДавлениеВетер, м/сВероятность осадков
    00:00Ясно и безоблачно+27°C45 %747 мм4.4 м/с5 %
    03:00Ясно и безоблачно+24°C48 %746 мм2.6 м/с2 %
    06:00Ясно и безоблачно+22°C65 %747 мм1.9 м/с4 %
    09:00Ясно и безоблачно+29°C53 %748 мм3.1 м/с5 %
    12:00Ясно и безоблачно+33°C31 %747 мм2.5 м/с5 %
    15:00Облачно с прояснениями+32°C32 %745 мм3.2 м/с5 %
    18:00Практически безоблачно+30°C44 %746 мм3.5 м/с5 %
    21:00Ясно и безоблачно+28°C46 %747 мм3.8 м/с5 %
  • 22июля
    Понедельник
    +21°
    +34°
    Облачно с прояснениями
    ВремяПогодаТемператураВлажностьДавлениеВетер, м/сВероятность осадков
    00:00Практически безоблачно+25°C58 %747 мм1.9 м/с5 %
    03:00Ясно и безоблачно+23°C72 %747 мм1.5 м/с5 %
    06:00Практически безоблачно+22°C82 %747 мм1.2 м/с5 %
    09:00Небольшая облачность+29°C58 %749 мм3.1 м/с5 %
    12:00Ясно и безоблачно+33°C35 %747 мм2.0 м/с5 %
    15:00Облачно с прояснениями+34°C30 %746 мм1.5 м/с5 %
    18:00Практически безоблачно+31°C45 %747 мм1.5 м/с5 %
    21:00Ясно и безоблачно+27°C56 %748 мм1.9 м/с5 %
  • 23июля
    Вторник
    +23°
    +34°
    Небольшая облачность
    ВремяПогодаТемператураВлажностьДавлениеВетер, м/сВероятность осадков
    00:00Ясно и безоблачно+25°C72 %748 мм0.5 м/с5 %
    03:00Ясно и безоблачно+23°C82 %747 мм1.6 м/с5 %
    06:00Ясно и безоблачно+22°C87 %748 мм0.9 м/с5 %
    09:00Ясно и безоблачно+29°C54 %749 мм2.4 м/с5 %
    12:00Ясно и безоблачно+32°C42 %748 мм1.9 м/с5 %
    15:00Небольшая облачность+34°C31 %746 мм1.5 м/с5 %
    18:00Ясно и безоблачно+32°C43 %747 мм3.0 м/с5 %
    21:00Ясно и безоблачно+28°C52 %748 мм2.5 м/с5 %
  • 24июля
    Среда
    +22°
    +34°
    Практически безоблачно
    ВремяПогодаТемператураВлажностьДавлениеВетер, м/сВероятность осадков
    00:00Ясно и безоблачно+26°C67 %749 мм2.3 м/с5 %
    03:00Ясно и безоблачно+24°C80 %748 мм3.2 м/с5 %
    06:00Ясно и безоблачно+24°C83 %748 мм1.7 м/с5 %
    09:00Ясно и безоблачно+29°C56 %750 мм3.6 м/с5 %
    12:00Ясно и безоблачно+33°C35 %748 мм3.1 м/с5 %
    15:00Практически безоблачно+34°C31 %746 мм3.8 м/с5 %
    18:00Ясно и безоблачно+31°C41 %747 мм3.4 м/с5 %
    21:00Ясно и безоблачно+29°C41 %749 мм4.7 м/с5 %
Мы используем cookies
Соглашаюсь